createdAt,value
2023-06-07T00:00:51.697Z,53.33
2023-06-07T00:03:39.736Z,53.75
2023-06-07T00:06:10.370Z,54.25
2023-06-07T00:08:38.302Z,54.28
2023-06-07T00:11:09.184Z,54.42
2023-06-07T00:13:39.905Z,54.68
2023-06-07T00:16:07.993Z,54.74
2023-06-07T00:18:36.122Z,54.68
2023-06-07T00:21:05.815Z,54.85
2023-06-07T00:23:34.008Z,55.11
2023-06-07T00:26:02.724Z,55.28
2023-06-07T00:28:30.805Z,55.88
2023-06-07T00:30:58.690Z,56.02
2023-06-07T00:33:26.581Z,55.91
2023-06-07T00:35:54.630Z,56.00
2023-06-07T00:38:24.943Z,56.30
2023-06-07T00:40:53.204Z,56.60
2023-06-07T00:43:21.292Z,56.57
2023-06-07T00:45:49.182Z,56.53
2023-06-07T00:48:17.309Z,56.53
2023-06-07T00:50:46.290Z,56.47
2023-06-07T00:53:14.685Z,56.55
2023-06-07T00:55:43.524Z,56.17
2023-06-07T00:58:12.244Z,56.38
2023-06-07T01:00:40.538Z,55.82
2023-06-07T01:03:08.435Z,56.00
2023-06-07T01:05:37.158Z,56.18
2023-06-07T01:08:05.617Z,56.16
2023-06-07T01:10:33.623Z,55.96
2023-06-07T01:13:03.894Z,55.93
2023-06-07T01:15:33.515Z,55.94
2023-06-07T01:18:02.691Z,55.94
2023-06-07T01:20:32.726Z,56.00
2023-06-07T01:23:07.238Z,56.29
2023-06-07T01:25:35.044Z,56.40
2023-06-07T01:28:03.598Z,56.41
2023-06-07T01:30:32.876Z,56.59
2023-06-07T01:33:05.062Z,56.75
2023-06-07T01:35:34.891Z,56.79
2023-06-07T01:38:03.360Z,56.46
2023-06-07T01:40:35.406Z,56.58
2023-06-07T01:43:05.961Z,56.68
2023-06-07T01:45:34.618Z,56.57
2023-06-07T01:48:03.295Z,56.78
2023-06-07T01:50:31.722Z,56.69
2023-06-07T01:52:59.909Z,56.84
2023-06-07T01:55:28.986Z,57.03
2023-06-07T01:58:01.641Z,57.09
2023-06-07T02:00:43.853Z,57.08
2023-06-07T02:03:20.234Z,57.02
2023-06-07T02:05:54.217Z,56.98
2023-06-07T02:08:34.021Z,56.82
2023-06-07T02:11:03.675Z,56.81
2023-06-07T02:13:36.086Z,56.86
2023-06-07T02:16:07.589Z,56.87
2023-06-07T02:18:42.043Z,57.22
2023-06-07T02:21:11.242Z,57.30
2023-06-07T02:23:39.477Z,57.26
2023-06-07T02:26:07.489Z,57.24
2023-06-07T02:28:35.459Z,57.28
2023-06-07T02:31:04.316Z,57.35
2023-06-07T02:33:32.270Z,57.44
2023-06-07T02:36:00.060Z,57.54
2023-06-07T02:38:28.732Z,57.62
2023-06-07T02:40:56.803Z,57.67
2023-06-07T02:43:24.597Z,57.80
2023-06-07T02:45:52.479Z,57.93
2023-06-07T02:48:20.865Z,58.26
2023-06-07T02:50:48.998Z,58.31
2023-06-07T02:53:16.818Z,58.38
2023-06-07T02:55:44.783Z,58.30
2023-06-07T02:58:12.682Z,58.15
2023-06-07T03:00:40.842Z,58.43
2023-06-07T03:03:09.024Z,58.61
2023-06-07T03:05:37.245Z,58.69
2023-06-07T03:08:06.734Z,59.01
2023-06-07T03:10:34.832Z,59.27
2023-06-07T03:13:03.834Z,59.20
2023-06-07T03:15:33.669Z,59.12
2023-06-07T03:18:02.494Z,58.97
2023-06-07T03:20:31.237Z,59.27
2023-06-07T03:22:59.082Z,59.29
2023-06-07T03:25:26.963Z,58.84
2023-06-07T03:27:54.999Z,58.68
2023-06-07T03:30:22.738Z,58.75
2023-06-07T03:32:51.033Z,58.28
2023-06-07T03:35:19.984Z,58.34
2023-06-07T03:37:48.363Z,58.40
2023-06-07T03:40:16.539Z,58.26
2023-06-07T03:42:44.484Z,58.41
2023-06-07T03:45:12.511Z,58.24
2023-06-07T03:47:41.353Z,58.25
2023-06-07T03:50:09.836Z,58.18
2023-06-07T03:52:37.817Z,58.51
2023-06-07T03:55:06.201Z,58.20
2023-06-07T03:57:34.068Z,57.80
2023-06-07T04:00:06.640Z,57.44
2023-06-07T04:02:35.906Z,57.85
2023-06-07T04:05:05.044Z,57.70
2023-06-07T04:07:33.315Z,57.50
2023-06-07T04:10:01.156Z,57.80
2023-06-07T04:12:29.146Z,57.23
2023-06-07T04:14:56.981Z,57.15
2023-06-07T04:17:24.894Z,57.11
2023-06-07T04:19:57.877Z,55.15
2023-06-07T04:22:27.277Z,52.23
2023-06-07T04:24:55.250Z,49.97
2023-06-07T04:27:24.464Z,48.43
2023-06-07T04:29:55.000Z,47.21
2023-06-07T04:32:23.393Z,47.13
2023-06-07T04:34:52.926Z,46.86
2023-06-07T04:37:20.928Z,46.43
2023-06-07T04:39:50.441Z,45.91
2023-06-07T04:42:19.167Z,46.38
2023-06-07T04:44:47.036Z,48.45
2023-06-07T04:47:15.062Z,50.16
2023-06-07T04:49:43.021Z,50.85
2023-06-07T04:52:13.780Z,51.51
2023-06-07T04:54:43.339Z,50.19
2023-06-07T04:57:12.264Z,50.31
2023-06-07T04:59:45.781Z,51.54
2023-06-07T05:02:13.769Z,51.87
2023-06-07T05:04:41.636Z,51.80
2023-06-07T05:07:10.110Z,51.83
2023-06-07T05:09:38.621Z,52.02
2023-06-07T05:12:07.602Z,52.30
2023-06-07T05:14:35.480Z,52.43
2023-06-07T05:17:03.303Z,52.66
2023-06-07T05:19:31.182Z,52.88
2023-06-07T05:21:59.446Z,52.60
2023-06-07T05:24:27.454Z,52.14
2023-06-07T05:26:55.244Z,52.14
2023-06-07T05:29:23.067Z,52.33
2023-06-07T05:31:51.199Z,51.98
2023-06-07T05:34:19.360Z,52.28
2023-06-07T05:36:47.466Z,52.31
2023-06-07T05:39:15.886Z,51.81
2023-06-07T05:41:44.121Z,51.74
2023-06-07T05:44:12.062Z,51.53
2023-06-07T05:46:40.041Z,52.03
2023-06-07T05:49:07.959Z,52.22
2023-06-07T05:51:35.814Z,52.44
2023-06-07T05:54:05.402Z,52.49
2023-06-07T05:56:33.279Z,52.43
2023-06-07T05:59:01.126Z,51.95
2023-06-07T06:01:30.633Z,51.82
2023-06-07T06:03:58.571Z,52.33
2023-06-07T06:06:26.397Z,51.89
2023-06-07T06:08:54.283Z,51.26
2023-06-07T06:11:22.109Z,50.95
2023-06-07T06:13:51.420Z,51.16
2023-06-07T06:16:19.310Z,51.66
2023-06-07T06:18:47.296Z,51.28
2023-06-07T06:21:15.519Z,50.93
2023-06-07T06:23:43.795Z,51.14
2023-06-07T06:26:12.111Z,51.21
2023-06-07T06:28:40.165Z,51.48
2023-06-07T06:31:08.308Z,51.50
2023-06-07T06:33:36.630Z,51.05
2023-06-07T06:36:05.168Z,51.36
2023-06-07T06:38:33.152Z,51.58
2023-06-07T06:41:01.265Z,51.33
2023-06-07T06:43:29.243Z,51.08
2023-06-07T06:45:57.292Z,50.97
2023-06-07T06:48:25.162Z,50.33
2023-06-07T06:50:53.251Z,50.18
2023-06-07T06:53:21.344Z,50.42
2023-06-07T06:55:49.515Z,50.04
2023-06-07T06:58:17.488Z,50.06
2023-06-07T07:00:45.535Z,49.94
2023-06-07T07:03:13.730Z,49.63
2023-06-07T07:05:41.689Z,49.64
2023-06-07T07:08:10.373Z,49.14
2023-06-07T07:10:38.639Z,48.91
2023-06-07T07:13:06.805Z,48.58
2023-06-07T07:15:34.664Z,47.77
2023-06-07T07:18:04.149Z,47.25
2023-06-07T07:20:32.260Z,47.08
2023-06-07T07:23:03.193Z,46.19
2023-06-07T07:25:31.384Z,46.19
2023-06-07T07:27:59.320Z,46.11
2023-06-07T07:30:27.265Z,45.69
2023-06-07T07:32:56.389Z,45.47
2023-06-07T07:35:25.236Z,45.51
2023-06-07T07:37:55.061Z,44.45
2023-06-07T07:40:23.459Z,44.29
2023-06-07T07:42:51.399Z,44.45
2023-06-07T07:45:19.264Z,43.98
2023-06-07T07:47:47.291Z,43.90
2023-06-07T07:50:17.666Z,43.00
2023-06-07T07:52:45.620Z,42.49
2023-06-07T07:55:13.536Z,42.35
2023-06-07T07:57:41.353Z,42.04
2023-06-07T08:00:11.926Z,42.47
2023-06-07T08:02:39.841Z,41.76
2023-06-07T08:05:08.826Z,42.30
2023-06-07T08:07:36.721Z,42.07
2023-06-07T08:10:06.488Z,41.46
2023-06-07T08:12:35.504Z,42.07
2023-06-07T08:15:04.109Z,42.16
2023-06-07T08:17:32.460Z,42.34
2023-06-07T08:20:00.618Z,41.50
2023-06-07T08:22:29.005Z,41.48
2023-06-07T08:24:56.959Z,41.20
2023-06-07T08:27:24.737Z,41.14
2023-06-07T08:29:52.738Z,41.40
2023-06-07T08:32:22.774Z,41.23
2023-06-07T08:34:51.415Z,40.62
2023-06-07T08:37:19.329Z,40.79
2023-06-07T08:39:48.274Z,40.86
2023-06-07T08:42:16.310Z,41.22
2023-06-07T08:44:44.423Z,41.11
2023-06-07T08:47:17.135Z,40.09
2023-06-07T08:49:46.169Z,40.15
2023-06-07T08:52:16.943Z,40.73
2023-06-07T08:54:48.505Z,40.17
2023-06-07T08:57:18.335Z,39.38
2023-06-07T08:59:47.893Z,39.02
2023-06-07T09:02:16.881Z,39.20
2023-06-07T09:04:46.179Z,39.23
2023-06-07T09:07:14.415Z,38.92
2023-06-07T09:09:45.041Z,38.65
2023-06-07T09:12:13.180Z,39.04
2023-06-07T09:14:41.875Z,39.03
2023-06-07T09:17:10.087Z,38.63
2023-06-07T09:19:42.380Z,38.29
2023-06-07T09:22:15.487Z,38.43
2023-06-07T09:24:44.722Z,38.29
2023-06-07T09:27:14.400Z,37.23
2023-06-07T09:29:44.569Z,36.90
2023-06-07T09:32:25.183Z,36.54
2023-06-07T09:35:11.738Z,34.88
2023-06-07T09:37:48.131Z,35.24
2023-06-07T09:40:16.516Z,35.50
2023-06-07T09:42:44.921Z,35.12
2023-06-07T09:45:18.582Z,34.47
2023-06-07T09:47:47.057Z,34.89
2023-06-07T09:50:16.020Z,34.74
2023-06-07T09:52:43.913Z,34.66
2023-06-07T09:55:28.586Z,35.00
2023-06-07T09:57:57.136Z,35.15
2023-06-07T10:00:27.021Z,35.65
2023-06-07T10:03:06.804Z,35.88
2023-06-07T10:05:36.190Z,35.42
2023-06-07T10:08:05.903Z,35.21
2023-06-07T10:10:36.168Z,35.50
2023-06-07T10:13:06.299Z,35.47
2023-06-07T10:15:35.717Z,35.52
2023-06-07T10:18:17.742Z,35.83
2023-06-07T10:20:53.484Z,35.35
2023-06-07T10:23:58.813Z,35.13
2023-06-07T10:26:42.185Z,35.16
2023-06-07T10:29:21.306Z,34.65
2023-06-07T10:32:04.143Z,34.69
2023-06-07T10:34:33.587Z,34.49
2023-06-07T10:37:03.367Z,34.56
2023-06-07T10:39:31.450Z,34.55
2023-06-07T10:42:00.282Z,34.45
2023-06-07T10:44:29.714Z,34.26
2023-06-07T10:47:22.470Z,34.15
2023-06-07T10:49:54.815Z,34.13
2023-06-07T10:52:24.506Z,34.20
2023-06-07T10:54:53.080Z,33.81
2023-06-07T10:57:38.516Z,33.85
2023-06-07T11:00:31.885Z,33.60
2023-06-07T11:03:06.558Z,33.78
2023-06-07T11:05:54.764Z,34.02
2023-06-07T11:08:30.304Z,34.17
2023-06-07T11:11:02.974Z,33.90
2023-06-07T11:13:40.182Z,33.44
2023-06-07T11:16:27.375Z,33.37
2023-06-07T11:18:57.398Z,33.11
2023-06-07T11:21:28.826Z,33.27
2023-06-07T11:24:15.979Z,33.27
2023-06-07T11:26:44.609Z,32.98
2023-06-07T11:29:13.320Z,32.70
2023-06-07T11:31:41.858Z,32.36
2023-06-07T11:34:15.766Z,32.18
2023-06-07T11:36:44.758Z,32.27
2023-06-07T11:39:18.052Z,32.66
2023-06-07T11:41:48.261Z,32.25
2023-06-07T11:44:16.677Z,32.19
2023-06-07T11:46:46.093Z,32.45
2023-06-07T11:49:14.298Z,32.20
2023-06-07T11:51:42.714Z,32.75
2023-06-07T11:54:11.100Z,33.02
2023-06-07T11:56:39.929Z,33.01
2023-06-07T11:59:11.152Z,33.23
2023-06-07T12:01:44.328Z,33.44
2023-06-07T12:04:12.872Z,33.15
2023-06-07T12:06:42.367Z,32.77
2023-06-07T12:09:13.483Z,33.09
2023-06-07T12:11:41.638Z,32.56
2023-06-07T12:14:11.164Z,32.63
2023-06-07T12:16:40.217Z,32.34
2023-06-07T12:19:08.159Z,32.17
2023-06-07T12:21:36.021Z,32.30
2023-06-07T12:24:05.281Z,32.49
2023-06-07T12:26:37.960Z,32.75
2023-06-07T12:29:07.140Z,32.67
2023-06-07T12:31:40.708Z,33.01
2023-06-07T12:34:11.689Z,32.63
2023-06-07T12:36:40.580Z,32.26
2023-06-07T12:39:11.180Z,31.71
2023-06-07T12:41:40.276Z,31.61
2023-06-07T12:44:10.619Z,31.49
2023-06-07T12:46:38.730Z,31.52
2023-06-07T12:49:07.398Z,31.45
2023-06-07T12:51:36.095Z,31.40
2023-06-07T12:54:04.935Z,31.21
2023-06-07T12:56:33.539Z,30.66
2023-06-07T12:59:03.154Z,30.55
2023-06-07T13:01:32.499Z,30.18
2023-06-07T13:04:01.251Z,30.11
2023-06-07T13:06:29.816Z,30.24
2023-06-07T13:09:09.242Z,30.76
2023-06-07T13:11:41.051Z,30.41
2023-06-07T13:14:09.069Z,30.45
2023-06-07T13:16:38.090Z,30.31
2023-06-07T13:19:06.067Z,30.62
2023-06-07T13:21:34.063Z,31.01
2023-06-07T13:24:02.237Z,30.99
2023-06-07T13:26:30.507Z,31.41
2023-06-07T13:28:58.801Z,30.51
2023-06-07T13:31:27.107Z,30.11
2023-06-07T13:33:55.037Z,30.20
2023-06-07T13:36:24.131Z,30.46
2023-06-07T13:38:52.212Z,29.81
2023-06-07T13:41:21.297Z,29.78
2023-06-07T13:44:03.609Z,30.52
2023-06-07T13:46:36.250Z,30.45
2023-06-07T13:49:04.236Z,30.09
2023-06-07T13:51:35.458Z,30.40
2023-06-07T13:54:03.574Z,30.54
2023-06-07T13:56:31.670Z,30.53
2023-06-07T13:59:01.080Z,30.74
2023-06-07T14:01:30.539Z,31.32
2023-06-07T14:04:00.023Z,31.39
2023-06-07T14:06:28.617Z,30.93
2023-06-07T14:08:56.723Z,31.02
2023-06-07T14:11:25.802Z,31.29
2023-06-07T14:13:53.714Z,30.83
2023-06-07T14:16:22.086Z,30.54
2023-06-07T14:18:50.057Z,30.53
2023-06-07T14:21:18.093Z,31.14
2023-06-07T14:23:46.435Z,31.16
2023-06-07T14:26:16.203Z,31.79
2023-06-07T14:28:46.950Z,31.83
2023-06-07T14:31:16.346Z,31.62
2023-06-07T14:33:45.023Z,32.15
2023-06-07T14:36:12.967Z,31.79
2023-06-07T14:38:41.101Z,31.78
2023-06-07T14:41:09.243Z,31.97
2023-06-07T14:43:37.190Z,31.28
2023-06-07T14:46:05.682Z,31.24
2023-06-07T14:48:33.721Z,31.05
2023-06-07T14:51:01.657Z,31.37
2023-06-07T14:53:29.573Z,31.34
2023-06-07T14:55:57.417Z,31.27
2023-06-07T14:58:25.433Z,31.09
2023-06-07T15:00:53.415Z,31.03
2023-06-07T15:03:21.575Z,30.76
2023-06-07T15:05:50.009Z,30.98
2023-06-07T15:08:17.840Z,30.78
2023-06-07T15:10:45.777Z,30.40
2023-06-07T15:13:13.596Z,30.42
2023-06-07T15:15:42.472Z,30.55
2023-06-07T15:18:10.437Z,30.61
2023-06-07T15:20:38.366Z,30.59
2023-06-07T15:23:06.179Z,30.72
2023-06-07T15:25:34.300Z,30.22
2023-06-07T15:28:02.336Z,30.21
2023-06-07T15:30:31.292Z,30.13
2023-06-07T15:32:59.154Z,30.27
2023-06-07T15:35:27.088Z,30.31
2023-06-07T15:37:54.930Z,30.63
2023-06-07T15:40:23.363Z,30.51
2023-06-07T15:42:51.309Z,30.81
2023-06-07T15:45:19.377Z,30.94
2023-06-07T15:48:01.721Z,31.22
2023-06-07T15:50:30.656Z,30.72
2023-06-07T15:52:59.365Z,30.63
2023-06-07T15:55:29.060Z,30.41
2023-06-07T15:57:57.251Z,30.52
2023-06-07T16:00:37.770Z,30.48
2023-06-07T16:03:09.676Z,30.73
2023-06-07T16:05:38.330Z,30.85
2023-06-07T16:08:13.568Z,30.90
2023-06-07T16:10:42.347Z,30.77
2023-06-07T16:13:10.292Z,30.88
2023-06-07T16:15:38.714Z,31.18
2023-06-07T16:18:06.872Z,31.17
2023-06-07T16:20:35.175Z,31.21
2023-06-07T16:23:03.458Z,31.32
2023-06-07T16:25:31.301Z,31.11
2023-06-07T16:27:59.131Z,31.12
2023-06-07T16:30:27.828Z,31.39
2023-06-07T16:32:56.007Z,31.53
2023-06-07T16:35:23.889Z,31.48
2023-06-07T16:37:51.811Z,31.58
2023-06-07T16:40:19.682Z,31.62
2023-06-07T16:42:48.841Z,31.61
2023-06-07T16:45:16.839Z,31.56
2023-06-07T16:47:46.378Z,31.58
2023-06-07T16:50:14.474Z,31.58
2023-06-07T16:52:42.423Z,31.39
2023-06-07T16:55:10.477Z,31.52
2023-06-07T16:57:40.425Z,31.63
2023-06-07T17:00:09.547Z,31.77
2023-06-07T17:02:37.547Z,32.01
2023-06-07T17:05:07.664Z,32.31
2023-06-07T17:07:36.317Z,31.81
2023-06-07T17:10:05.114Z,31.72
2023-06-07T17:12:33.581Z,31.98
2023-06-07T17:15:01.609Z,32.17
2023-06-07T17:17:29.638Z,32.15
2023-06-07T17:19:57.766Z,31.79
2023-06-07T17:22:25.769Z,31.93
2023-06-07T17:24:53.596Z,32.15
2023-06-07T17:27:21.490Z,32.41
2023-06-07T17:29:49.396Z,32.59
2023-06-07T17:32:17.215Z,32.77
2023-06-07T17:34:45.054Z,32.75
2023-06-07T17:37:15.213Z,33.13
2023-06-07T17:39:43.804Z,33.32
2023-06-07T17:42:14.658Z,33.51
2023-06-07T17:44:42.616Z,33.64
2023-06-07T17:47:11.468Z,34.00
2023-06-07T17:49:40.372Z,34.25
2023-06-07T17:52:21.598Z,34.58
2023-06-07T17:54:50.992Z,34.56
2023-06-07T17:57:18.866Z,34.85
2023-06-07T17:59:46.845Z,35.19
2023-06-07T18:02:14.926Z,35.45
2023-06-07T18:04:42.956Z,35.38
2023-06-07T18:07:10.878Z,35.51
2023-06-07T18:09:39.918Z,35.84
2023-06-07T18:12:10.651Z,36.14
2023-06-07T18:14:39.987Z,36.52
2023-06-07T18:17:10.052Z,36.62
2023-06-07T18:19:39.102Z,36.71
2023-06-07T18:22:07.055Z,37.22
2023-06-07T18:24:35.964Z,37.57
2023-06-07T18:27:04.665Z,37.79
2023-06-07T18:29:33.523Z,38.84
2023-06-07T18:32:01.568Z,38.57
2023-06-07T18:34:29.578Z,38.50
2023-06-07T18:36:57.523Z,38.88
2023-06-07T18:39:25.648Z,39.50
2023-06-07T18:41:53.571Z,40.39
2023-06-07T18:44:21.609Z,40.22
2023-06-07T18:46:49.784Z,40.56
2023-06-07T18:49:18.895Z,41.12
2023-06-07T18:51:46.683Z,41.74
2023-06-07T18:54:14.601Z,41.54
2023-06-07T18:56:42.524Z,42.39
2023-06-07T18:59:10.670Z,42.78
2023-06-07T19:01:50.934Z,42.94
2023-06-07T19:04:20.011Z,43.25
2023-06-07T19:06:51.363Z,43.38
2023-06-07T19:09:19.727Z,43.10
2023-06-07T19:11:47.719Z,43.42
2023-06-07T19:14:17.337Z,42.81
2023-06-07T19:16:47.077Z,42.55
2023-06-07T19:19:14.999Z,43.46
2023-06-07T19:21:43.427Z,43.28
2023-06-07T19:24:11.291Z,43.26
2023-06-07T19:26:39.289Z,43.48
2023-06-07T19:29:07.333Z,45.43
2023-06-07T19:31:35.512Z,46.16
2023-06-07T19:34:06.836Z,45.98
2023-06-07T19:36:36.756Z,45.80
2023-06-07T19:39:04.678Z,46.32
2023-06-07T19:41:32.813Z,46.82
2023-06-07T19:44:00.762Z,45.65
2023-06-07T19:46:28.714Z,45.96
2023-06-07T19:48:58.510Z,46.49
2023-06-07T19:51:26.347Z,45.50
2023-06-07T19:53:57.884Z,45.49
2023-06-07T19:56:27.296Z,45.85
2023-06-07T19:58:55.451Z,46.11
2023-06-07T20:01:23.294Z,46.35
2023-06-07T20:03:51.270Z,46.62
2023-06-07T20:06:19.162Z,46.68
2023-06-07T20:08:46.961Z,46.67
2023-06-07T20:11:14.874Z,46.84
2023-06-07T20:13:42.660Z,46.54
2023-06-07T20:16:10.754Z,46.87
2023-06-07T20:18:38.797Z,47.21
2023-06-07T20:21:06.748Z,47.30
2023-06-07T20:23:34.711Z,47.43
2023-06-07T20:26:02.546Z,47.41
2023-06-07T20:28:30.733Z,47.00
2023-06-07T20:30:59.267Z,46.82
2023-06-07T20:33:29.590Z,46.87
2023-06-07T20:35:58.115Z,47.24
2023-06-07T20:38:27.482Z,47.17
2023-06-07T20:40:55.458Z,47.21
2023-06-07T20:43:23.615Z,48.49
2023-06-07T20:45:51.597Z,49.35
2023-06-07T20:48:19.523Z,49.74
2023-06-07T20:50:47.542Z,49.62
2023-06-07T20:53:15.525Z,50.10
2023-06-07T20:55:43.465Z,49.14
2023-06-07T20:58:11.426Z,48.06
2023-06-07T21:00:41.863Z,47.74
2023-06-07T21:03:09.877Z,47.95
2023-06-07T21:05:37.971Z,48.19
2023-06-07T21:08:06.141Z,48.89
2023-06-07T21:10:35.986Z,48.76
2023-06-07T21:13:04.418Z,48.25
2023-06-07T21:15:32.482Z,48.47
2023-06-07T21:18:00.668Z,48.23
2023-06-07T21:20:28.662Z,48.26
2023-06-07T21:22:56.930Z,48.38
2023-06-07T21:25:25.001Z,48.58
2023-06-07T21:27:53.119Z,48.78
2023-06-07T21:30:21.391Z,48.66
2023-06-07T21:32:49.437Z,48.91
2023-06-07T21:35:17.460Z,48.88
2023-06-07T21:37:45.655Z,48.98
2023-06-07T21:40:13.655Z,49.08
2023-06-07T21:42:41.553Z,49.02
2023-06-07T21:45:10.287Z,49.17
2023-06-07T21:47:38.188Z,49.46
2023-06-07T21:50:06.866Z,49.54
2023-06-07T21:52:35.301Z,49.47
2023-06-07T21:55:03.325Z,49.65
2023-06-07T21:57:32.307Z,49.80
2023-06-07T22:00:00.555Z,50.41
2023-06-07T22:02:29.691Z,50.36
2023-06-07T22:04:59.517Z,50.29
2023-06-07T22:07:29.771Z,50.30
2023-06-07T22:10:00.516Z,50.17
2023-06-07T22:12:30.391Z,50.56
2023-06-07T22:15:01.757Z,50.81
2023-06-07T22:17:30.008Z,51.27
2023-06-07T22:19:59.261Z,51.51
2023-06-07T22:22:28.222Z,51.54
2023-06-07T22:24:56.671Z,50.96
2023-06-07T22:27:24.467Z,50.95
2023-06-07T22:29:54.225Z,51.17
2023-06-07T22:32:28.946Z,50.97
2023-06-07T22:35:04.968Z,51.08
2023-06-07T22:37:34.690Z,51.50
2023-06-07T22:40:08.233Z,51.56
2023-06-07T22:42:36.834Z,51.53
2023-06-07T22:45:05.470Z,52.50
2023-06-07T22:47:33.670Z,53.04
2023-06-07T22:50:02.539Z,53.22
2023-06-07T22:52:35.974Z,53.36
2023-06-07T22:55:04.246Z,53.46
2023-06-07T22:57:33.009Z,53.43
2023-06-07T23:00:03.019Z,53.83
2023-06-07T23:02:32.328Z,54.40
2023-06-07T23:05:00.728Z,55.17
2023-06-07T23:07:31.010Z,55.19
2023-06-07T23:09:59.004Z,55.14
2023-06-07T23:12:26.903Z,55.33
2023-06-07T23:14:54.880Z,55.49
2023-06-07T23:17:24.077Z,55.25
2023-06-07T23:19:52.043Z,55.21
2023-06-07T23:22:20.620Z,55.23
2023-06-07T23:24:49.256Z,55.21
2023-06-07T23:27:17.487Z,55.08
2023-06-07T23:29:45.633Z,55.28
2023-06-07T23:32:13.814Z,55.37
2023-06-07T23:34:42.283Z,55.37
2023-06-07T23:37:10.556Z,55.11
2023-06-07T23:39:38.579Z,55.07
2023-06-07T23:42:06.926Z,54.69
2023-06-07T23:44:35.067Z,54.63
2023-06-07T23:47:03.248Z,54.63
2023-06-07T23:49:36.249Z,54.89
2023-06-07T23:52:04.732Z,55.20
2023-06-07T23:54:32.776Z,55.29
2023-06-07T23:57:00.888Z,55.57
2023-06-07T23:59:29.568Z,55.58
